Data for 11/16/2010

Time Sea-Level Adjusted Pressure Absolute Pressure Temperature Relative Humidity Dew Point   
(mb) (inHg) (mb) (inHg) (C) (F) (%) (C) (F)
00:05 1007 29.74 836 24.69 1 33.7 94 0.2 32.3
00:10 1007 29.74 836 24.69 0.9 33.7 94 0.1 32.2
00:15 1007 29.74 836 24.69 0.9 33.6 95 0.1 32.2
00:20 1007 29.74 836 24.69 1 33.7 94 0.1 32.2
00:25 1006 29.71 836 24.69 1 33.8 94 0.1 32.2
00:30 1006 29.71 835 24.66 1.2 34.1 93 0.1 32.3
00:35 1006 29.71 835 24.66 1.2 34.2 93 0.1 32.3
00:40 1006 29.71 835 24.66 1.3 34.3 92 0.1 32.2
00:45 1006 29.71 835 24.66 1.4 34.5 91 0.1 32.2
00:50 1006 29.71 835 24.66 1.4 34.6 91 0.1 32.2
00:55 1006 29.71 835 24.66 1.5 34.7 90 0.1 32.1
01:00 1005 29.68 835 24.66 1.6 34.9 89 0 32
01:05 1005 29.68 835 24.66 1.7 35 90 0.2 32.4
01:10 1005 29.68 834 24.63 1.5 34.7 91 0.2 32.3
01:15 1005 29.68 834 24.63 1.4 34.5 91 0.1 32.3
01:20 1005 29.68 834 24.63 1.4 34.5 91 0.1 32.1
01:25 1005 29.68 834 24.63 1.4 34.6 91 0.1 32.2
01:30 1005 29.68 834 24.63 1.5 34.6 91 0.1 32.2
01:35 1005 29.68 834 24.63 1.5 34.7 90 0.1 32.2
01:40 1005 29.68 834 24.63 1.6 34.9 90 0.1 32.2
01:45 1005 29.68 834 24.63 1.6 34.9 90 0.1 32.1
01:50 1005 29.68 834 24.63 1.6 34.9 89 0 32.1
01:55 1005 29.68 834 24.63 1.8 35.2 88 0 32
02:00 1004 29.65 834 24.63 1.9 35.3 89 0.2 32.3
02:05 1004 29.65 833 24.6 1.8 35.2 89 0.1 32.2
02:10 1004 29.65 833 24.6 1.8 35.3 89 0.1 32.3
02:15 1004 29.65 833 24.6 1.9 35.5 88 0.1 32.1
02:20 1004 29.65 833 24.6 2.1 35.8 85 -0.1 31.7
02:25 1004 29.65 833 24.6 2.3 36.1 85 -0 32
02:30 1004 29.65 833 24.6 2.3 36.1 85 -0 31.9
02:35 1004 29.65 833 24.6 2.3 36.1 85 0.1 32.1
02:40 1004 29.65 833 24.6 2.2 35.9 86 0.1 32.2
02:45 1003 29.62 833 24.6 2.1 35.8 86 0 32.1
02:50 1003 29.62 832 24.57 2.1 35.8 86 0 32.1
02:55 1003 29.62 832 24.57 2.1 35.8 86 0.1 32.1
03:00 1003 29.62 832 24.57 2.1 35.8 85 -0.2 31.7
03:05 1003 29.62 832 24.57 2.8 37 77 -0.9 30.4
03:10 1003 29.62 832 24.57 3.9 39 72 -0.7 30.7
03:15 1003 29.62 832 24.57 4.1 39.5 72 -0.4 31.2
03:20 1003 29.62 832 24.57 4.2 39.6 71 -0.5 31.1
03:25 1003 29.62 832 24.57 4.1 39.5 73 -0.2 31.7
03:30 1003 29.62 832 24.57 3.9 39 75 -0.1 31.8
03:35 1003 29.62 832 24.57 3.6 38.5 73 -0.7 30.7
03:40 1002 29.59 832 24.57 4.1 39.3 72 -0.6 31
03:45 1002 29.59 832 24.57 4.4 39.8 71 -0.5 31.1
03:50 1002 29.59 831 24.54 4.4 39.9 69 -0.8 30.5
03:55 1002 29.59 831 24.54 4.7 40.4 68 -0.6 30.9
04:00 1002 29.59 831 24.54 4.7 40.5 68 -0.8 30.6
04:05 1002 29.59 831 24.54 4.8 40.6 68 -0.6 31
04:10 1002 29.59 831 24.54 4.8 40.7 66 -1 30.2
04:15 1001 29.56 831 24.54 5.1 41.2 65 -1 30.2
04:20 1001 29.56 831 24.54 5.3 41.5 64 -0.9 30.3
04:25 1001 29.56 830 24.51 5.4 41.6 63 -1.1 30
04:30 1001 29.56 830 24.51 5.5 42 62 -1.1 30
04:35 1001 29.56 830 24.51 5.5 41.9 62 -1.2 29.8
04:40 1001 29.56 831 24.54 5.5 41.9 61 -1.4 29.6
04:45 1001 29.56 830 24.51 5.8 42.4 61 -1.2 29.9
04:50 1002 29.59 831 24.54 5.5 41.8 65 -0.5 31.1
04:55 1002 29.59 831 24.54 5 40.9 68 -0.5 31
05:00 1002 29.59 831 24.54 4.7 40.5 69 -0.4 31.3
05:05 1002 29.59 831 24.54 4.5 40.1 71 -0.3 31.4
05:10 1002 29.59 831 24.54 4.4 39.9 71 -0.4 31.4
05:15 1002 29.59 831 24.54 4.3 39.8 72 -0.2 31.6
05:20 1002 29.59 831 24.54 4.2 39.6 73 -0.1 31.8
05:25 1001 29.56 831 24.54 4.1 39.4 74 -0.1 31.9
05:30 1002 29.59 831 24.54 3.9 39.1 76 0.1 32.2
05:35 1002 29.59 831 24.54 3.6 38.5 76 -0.2 31.7
05:40 1002 29.59 831 24.54 3.7 38.7 75 -0.2 31.6
05:45 1002 29.59 831 24.54 4 39.1 75 -0 31.9
05:50 1002 29.59 831 24.54 4 39.3 77 0.4 32.7
05:55 1002 29.59 831 24.54 4 39.2 76 0.1 32.2
06:00 1001 29.56 831 24.54 3.8 38.8 77 0.1 32.2
06:05 1001 29.56 830 24.51 3.6 38.5 77 0 32
06:10 1001 29.56 830 24.51 3.6 38.5 78 0.1 32.2
06:15 1001 29.56 830 24.51 3.5 38.4 78 -0 32
06:20 1001 29.56 830 24.51 3.5 38.3 79 0.2 32.3
06:25 1001 29.56 831 24.54 3.4 38.1 79 0.1 32.1
06:30 1002 29.59 831 24.54 3.4 38.1 78 -0.1 31.9
06:35 1002 29.59 831 24.54 3.5 38.3 77 -0.3 31.5
06:40 1001 29.56 831 24.54 3.6 38.4 76 -0.2 31.7
06:45 1002 29.59 831 24.54 3.8 38.8 76 -0.1 31.9
06:50 1002 29.59 831 24.54 3.7 38.6 79 0.4 32.7
06:55 1002 29.59 831 24.54 3.4 38.1 82 0.5 33
07:00 1002 29.59 831 24.54 3.1 37.6 84 0.7 33.3
07:05 1002 29.59 831 24.54 3 37.3 86 0.8 33.5
07:10 1002 29.59 831 24.54 2.8 37.1 87 0.9 33.6
07:15 1002 29.59 831 24.54 2.8 37 87 0.8 33.5
07:20 1002 29.59 831 24.54 2.8 37 87 0.8 33.4
07:25 1002 29.59 831 24.54 2.8 37 87 0.9 33.6
07:30 1003 29.62 832 24.57 2.7 36.9 88 0.9 33.6
07:35 1003 29.62 832 24.57 2.7 36.9 88 1 33.8
07:40 1003 29.62 832 24.57 2.8 37 81 -0.1 31.9
07:45 1003 29.62 832 24.57 3 37.4 82 0.2 32.3
07:50 1003 29.62 832 24.57 2.7 36.9 85 0.4 32.7
07:55 1003 29.62 832 24.57 2.4 36.2 86 0.3 32.6
08:00 1003 29.62 832 24.57 2.2 36 87 0.3 32.5
08:05 1003 29.62 833 24.6 2 35.6 88 0.2 32.3
08:10 1003 29.62 833 24.6 1.7 35.1 87 -0.2 31.6
08:15 1003 29.62 833 24.6 1.9 35.4 85 -0.4 31.4
08:20 1003 29.62 833 24.6 2.1 35.7 83 -0.6 31
08:25 1004 29.65 833 24.6 2.2 36 78 -1.2 29.8
08:30 1004 29.65 833 24.6 2.6 36.6 71 -2.2 28
08:35 1004 29.65 833 24.6 3 37.4 67 -2.5 27.5
08:40 1004 29.65 833 24.6 3.2 37.7 66 -2.6 27.2
08:45 1004 29.65 833 24.6 3.2 37.7 66 -2.5 27.5
08:50 1004 29.65 833 24.6 3.1 37.6 66 -2.5 27.5
08:55 1004 29.65 833 24.6 3 37.5 63 -3.3 26.1
09:00 1004 29.65 833 24.6 3.2 37.8 62 -3.3 26
09:05 1004 29.65 833 24.6 3.3 37.9 61 -3.6 25.6
09:10 1004 29.65 833 24.6 3.3 38 60 -3.8 25.1
09:15 1004 29.65 834 24.63 3.3 37.9 58 -4.2 24.4
09:20 1004 29.65 834 24.63 3.3 38 56 -4.5 23.8
09:25 1005 29.68 834 24.63 3.3 38 56 -4.7 23.5
09:30 1005 29.68 834 24.63 3.1 37.5 75 -1 30.2
09:35 1005 29.68 835 24.66 2.2 35.9 84 -0.2 31.6
09:40 1006 29.71 835 24.66 1.6 34.8 86 -0.4 31.2
09:45 1006 29.71 835 24.66 1.5 34.6 87 -0.5 31.2
09:50 1006 29.71 836 24.69 1.4 34.5 87 -0.5 31
09:55 1006 29.71 836 24.69 1.3 34.4 87 -0.6 31
10:00 1007 29.74 836 24.69 1.4 34.5 88 -0.5 31.2
10:05 1007 29.74 836 24.69 1.2 34.2 88 -0.5 31.1
10:10 1007 29.74 836 24.69 1.1 34 89 -0.5 31
10:15 1007 29.74 836 24.69 0.8 33.5 90 -0.6 31
10:20 1008 29.77 837 24.72 0.6 33 91 -0.7 30.7
10:25 1008 29.77 837 24.72 0.4 32.8 92 -0.7 30.7
10:30 1008 29.77 837 24.72 0.4 32.8 93 -0.6 30.9
10:35 1008 29.77 837 24.72 0.5 32.8 92 -0.7 30.8
10:40 1008 29.77 837 24.72 0.4 32.7 93 -0.7 30.8
10:45 1008 29.77 837 24.72 0.5 33 91 -0.8 30.6
10:50 1008 29.77 837 24.72 0.5 33 90 -0.9 30.4
10:55 1008 29.77 838 24.75 0.5 33 90 -0.9 30.4
11:00 1008 29.77 838 24.75 0.5 32.9 90 -0.9 30.4
11:05 1009 29.8 838 24.75 0.4 32.8 90 -1 30.2
11:10 1009 29.8 838 24.75 0.2 32.3 90 -1.3 29.7
11:15 1009 29.8 838 24.75 -0.1 31.8 87 -1.9 28.5
11:20 1009 29.8 838 24.75 -0.4 31.2 88 -2.2 28.1
11:25 1009 29.8 838 24.75 -0.5 31.1 87 -2.4 27.6
11:30 1009 29.8 838 24.75 -0.6 30.9 87 -2.5 27.5
11:35 1009 29.8 839 24.78 -0.6 30.8 87 -2.6 27.4
11:40 1010 29.83 839 24.78 -0.7 30.7 81 -3.6 25.5
11:45 1010 29.83 839 24.78 -0.8 30.6 81 -3.7 25.3
11:50 1010 29.83 839 24.78 -0.8 30.6 81 -3.7 25.3
11:55 1010 29.83 839 24.78 -0.8 30.6 81 -3.6 25.5
12:00 1010 29.83 839 24.78 -0.7 30.7 81 -3.6 25.5
12:05 1010 29.83 839 24.78 -0.8 30.6 80 -3.8 25.2
12:10 1010 29.83 840 24.81 -0.8 30.6 78 -4.1 24.7
12:15 1010 29.83 840 24.81 -0.7 30.8 77 -4.2 24.5
12:20 1011 29.85 840 24.81 -0.6 30.9 74 -4.6 23.6
12:25 1011 29.85 840 24.81 -0.8 30.6 74 -4.8 23.4
12:30 1011 29.85 840 24.81 -1 30.2 74 -5.1 22.9
12:35 1011 29.85 840 24.81 -1.2 29.8 76 -4.9 23.1
12:40 1011 29.85 840 24.81 -1.4 29.4 77 -5 23
12:45 1011 29.85 840 24.81 -1.5 29.4 75 -5.4 22.3
12:50 1011 29.85 841 24.83 -1.5 29.4 75 -5.4 22.3
12:55 1012 29.88 841 24.83 -1.5 29.2 75 -5.4 22.4
13:00 1012 29.88 841 24.83 -1.6 29.1 75 -5.4 22.3
13:05 1012 29.88 841 24.83 -1.6 29.1 74 -5.6 21.9
13:10 1012 29.88 841 24.83 -1.6 29 73 -5.8 21.5
13:15 1012 29.88 841 24.83 -1.7 28.9 76 -5.5 22.2
13:20 1012 29.88 841 24.83 -1.7 28.9 76 -5.4 22.3
13:25 1012 29.88 841 24.83 -1.8 28.7 76 -5.5 22.1
13:30 1012 29.88 842 24.86 -1.8 28.7 78 -5.2 22.7
13:35 1013 29.91 842 24.86 -1.7 28.9 76 -5.4 22.3
13:40 1013 29.91 842 24.86 -1.8 28.8 76 -5.5 22
13:45 1013 29.91 842 24.86 -2 28.3 77 -5.5 22
13:50 1013 29.91 842 24.86 -2.1 28.1 77 -5.6 21.9
13:55 1013 29.91 842 24.86 -2 28.3 78 -5.4 22.3
14:00 1013 29.91 842 24.86 -1.9 28.7 74 -5.9 21.4
14:05 1013 29.91 842 24.86 -2 28.4 74 -6 21.1
14:10 1013 29.91 843 24.89 -2.1 28.3 74 -6.1 21
14:15 1014 29.94 843 24.89 -2 28.3 74 -6 21.1
14:20 1014 29.94 843 24.89 -2.1 28.2 76 -5.8 21.5
14:25 1014 29.94 843 24.89 -2 28.5 75 -5.9 21.4
14:30 1014 29.94 843 24.89 -2 28.4 74 -6.1 21
14:35 1014 29.94 843 24.89 -1.9 28.5 74 -6 21.2
14:40 1014 29.94 843 24.89 -1.9 28.6 75 -5.8 21.6
14:45 1014 29.94 844 24.92 -1.8 28.7 74 -5.8 21.5
14:50 1014 29.94 844 24.92 -2 28.5 74 -5.9 21.3
14:55 1015 29.97 844 24.92 -2 28.3 74 -6.1 20.9
15:00 1015 29.97 844 24.92 -2 28.4 72 -6.4 20.5
15:05 1015 29.97 844 24.92 -2 28.4 73 -6.2 20.9
15:10 1015 29.97 844 24.92 -2 28.4 73 -6.2 20.8
15:15 1015 29.97 844 24.92 -2 28.4 74 -6.1 21
15:20 1015 29.97 844 24.92 -2 28.4 73 -6.2 20.9
15:25 1015 29.97 844 24.92 -1.9 28.6 72 -6.3 20.7
15:30 1015 29.97 845 24.95 -1.9 28.5 72 -6.3 20.7
15:35 1015 29.97 845 24.95 -1.9 28.6 73 -6.2 20.8
15:40 1015 29.97 845 24.95 -2 28.4 73 -6.3 20.7
15:45 1016 30 845 24.95 -2.5 27.5 75 -6.4 20.5
15:50 1016 30 845 24.95 -2.4 27.7 74 -6.5 20.3
15:55 1016 30 845 24.95 -2.5 27.5 72 -6.9 19.5
16:00 1016 30 845 24.95 -2.9 26.8 74 -6.9 19.5
16:05 1016 30 845 24.95 -2.9 26.7 71 -7.4 18.7
16:10 1016 30 845 24.95 -3.1 26.4 72 -7.4 18.7
16:15 1016 30 845 24.95 -2.9 26.8 72 -7.3 18.8
16:20 1016 30 845 24.95 -2.8 26.9 72 -7.2 19
16:25 1016 30 846 24.98 -2.9 26.7 71 -7.5 18.6
16:30 1016 30 846 24.98 -2.9 26.8 71 -7.4 18.7
16:35 1017 30.03 846 24.98 -2.8 27 73 -7.1 19.3
16:40 1017 30.03 846 24.98 -2.7 27.2 70 -7.4 18.8
16:45 1017 30.03 846 24.98 -2.8 27 72 -7.2 19
16:50 1017 30.03 846 24.98 -3 26.7 72 -7.4 18.7
16:55 1017 30.03 846 24.98 -3 26.6 73 -7.2 19
17:00 1017 30.03 846 24.98 -3.1 26.4 74 -7.2 19.1
17:05 1017 30.03 846 24.98 -3.1 26.4 74 -7.1 19.2
17:10 1017 30.03 846 24.98 -3.1 26.5 73 -7.2 19.1
17:15 1017 30.03 846 24.98 -3.3 26.1 74 -7.2 19
17:20 1017 30.03 846 24.98 -3.5 25.8 76 -7.1 19.3
17:25 1017 30.03 846 24.98 -3.3 26.1 75 -7.2 19
17:30 1017 30.03 846 24.98 -3.6 25.5 77 -7.1 19.3
17:35 1017 30.03 847 25.01 -3.5 25.7 74 -7.5 18.5
17:40 1018 30.06 847 25.01 -3.6 25.6 74 -7.6 18.4
17:45 1018 30.06 847 25.01 -3.4 25.9 75 -7.3 18.9
17:50 1018 30.06 847 25.01 -3.2 26.3 74 -7.1 19.2
17:55 1018 30.06 847 25.01 -3.1 26.4 75 -7 19.3
18:00 1018 30.06 847 25.01 -3.2 26.2 76 -6.9 19.5
18:05 1018 30.06 847 25.01 -3.4 25.9 77 -6.9 19.5
18:10 1018 30.06 847 25.01 -3.4 25.9 76 -7 19.3
18:15 1018 30.06 847 25.01 -3.4 25.9 76 -7 19.4
18:20 1018 30.06 847 25.01 -3.5 25.8 77 -7 19.4
18:25 1018 30.06 847 25.01 -3.5 25.8 77 -7 19.4
18:30 1018 30.06 848 25.04 -3.6 25.5 77 -7.1 19.2
18:35 1018 30.06 848 25.04 -3.6 25.5 78 -7 19.5
18:40 1019 30.09 848 25.04 -3.6 25.4 77 -7.1 19.3
18:45 1019 30.09 848 25.04 -3.7 25.3 79 -6.8 19.7
18:50 1019 30.09 848 25.04 -3.8 25.2 80 -6.7 19.9
18:55 1019 30.09 848 25.04 -3.8 25.2 80 -6.7 19.9
19:00 1019 30.09 848 25.04 -3.9 25 80 -6.8 19.7
19:05 1019 30.09 848 25.04 -3.9 24.9 82 -6.6 20.1
19:10 1019 30.09 848 25.04 -4.1 24.7 82 -6.7 19.9
19:15 1019 30.09 848 25.04 -4.1 24.7 82 -6.8 19.8
19:20 1019 30.09 848 25.04 -4.2 24.4 81 -6.9 19.5
19:25 1019 30.09 848 25.04 -4.3 24.2 81 -7.2 19.1
19:30 1019 30.09 848 25.04 -4.3 24.3 81 -7.1 19.3
19:35 1019 30.09 848 25.04 -4.1 24.6 79 -7.2 19
19:40 1019 30.09 848 25.04 -4 24.7 80 -7 19.4
19:45 1019 30.09 848 25.04 -4.1 24.6 80 -7 19.4
19:50 1019 30.09 848 25.04 -4 24.7 80 -6.9 19.5
19:55 1019 30.09 848 25.04 -4.1 24.7 80 -7 19.4
20:00 1019 30.09 848 25.04 -4.1 24.6 80 -7.1 19.2
20:05 1019 30.09 849 25.07 -4.1 24.7 80 -7.1 19.2
20:10 1019 30.09 849 25.07 -4.1 24.6 79 -7.3 18.9
20:15 1019 30.09 849 25.07 -4.1 24.6 79 -7.1 19.1
20:20 1019 30.09 849 25.07 -4.2 24.5 80 -7 19.3
20:25 1019 30.09 849 25.07 -4.1 24.6 80 -7 19.3
20:30 1019 30.09 849 25.07 -4.1 24.6 78 -7.3 18.8
20:35 1020 30.12 849 25.07 -4.1 24.6 78 -7.4 18.8
20:40 1020 30.12 849 25.07 -4.1 24.6 78 -7.5 18.5
20:45 1019 30.09 849 25.07 -4.3 24.3 79 -7.4 18.6
20:50 1019 30.09 849 25.07 -4.2 24.4 79 -7.3 18.9
20:55 1020 30.12 849 25.07 -4.1 24.5 80 -7.2 19.1
21:00 1020 30.12 849 25.07 -4.1 24.6 78 -7.4 18.7
21:05 1020 30.12 849 25.07 -4.2 24.5 79 -7.4 18.7
21:10 1020 30.12 849 25.07 -4.2 24.5 79 -7.3 18.9
21:15 1020 30.12 849 25.07 -4.2 24.4 79 -7.4 18.7
21:20 1020 30.12 849 25.07 -4.3 24.3 78 -7.5 18.4
21:25 1020 30.12 849 25.07 -4.3 24.3 78 -7.6 18.3
21:30 1020 30.12 849 25.07 -4.3 24.3 78 -7.6 18.3
21:35 1020 30.12 849 25.07 -4.3 24.2 78 -7.6 18.4
21:40 1020 30.12 849 25.07 -4.3 24.2 79 -7.4 18.6
21:45 1020 30.12 849 25.07 -4.3 24.3 78 -7.5 18.5
21:50 1020 30.12 849 25.07 -4.5 23.9 79 -7.5 18.5
21:55 1020 30.12 849 25.07 -4.5 23.8 80 -7.6 18.4
22:00 1020 30.12 849 25.07 -4.5 23.9 79 -7.5 18.4
22:05 1020 30.12 849 25.07 -4.4 24.1 80 -7.4 18.7
22:10 1020 30.12 849 25.07 -4.4 24 79 -7.5 18.5
22:15 1020 30.12 850 25.1 -4.4 24 79 -7.5 18.5
22:20 1020 30.12 850 25.1 -4.4 24 80 -7.5 18.6
22:25 1020 30.12 850 25.1 -4.4 24 79 -7.5 18.4
22:30 1021 30.15 850 25.1 -4.3 24.2 79 -7.5 18.5
22:35 1020 30.12 850 25.1 -4.3 24.2 79 -7.5 18.6
22:40 1020 30.12 850 25.1 -4.3 24.2 78 -7.6 18.3
22:45 1020 30.12 850 25.1 -4.5 23.8 80 -7.5 18.4
22:50 1020 30.12 850 25.1 -4.6 23.7 80 -7.5 18.5
22:55 1020 30.12 850 25.1 -4.5 23.8 80 -7.5 18.6
23:00 1020 30.12 850 25.1 -4.5 23.9 80 -7.4 18.7
23:05 1020 30.12 850 25.1 -4.5 23.9 81 -7.3 18.8
23:10 1020 30.12 850 25.1 -4.5 24 80 -7.4 18.7
23:15 1020 30.12 850 25.1 -4.4 24 81 -7.2 19
23:20 1020 30.12 850 25.1 -4.5 23.9 81 -7.3 18.9
23:25 1020 30.12 850 25.1 -4.6 23.6 82 -7.3 18.9
23:30 1020 30.12 850 25.1 -4.6 23.6 81 -7.5 18.5
23:35 1021 30.15 850 25.1 -4.6 23.7 81 -7.4 18.6
23:40 1021 30.15 850 25.1 -4.6 23.7 81 -7.4 18.7
23:45 1021 30.15 850 25.1 -4.6 23.8 81 -7.4 18.7
23:50 1021 30.15 850 25.1 -4.6 23.8 81 -7.4 18.7
23:55 1021 30.15 850 25.1 -4.5 23.8 81 -7.3 18.8
24:00 1021 30.15 850 25.1 -4.5 23.8 82 -7.2 19.1